createdAt,value
2019-05-07T00:01:42.410Z,99.90
2019-05-07T00:06:46.806Z,99.90
2019-05-07T00:11:50.417Z,99.90
2019-05-07T00:16:59.758Z,99.90
2019-05-07T00:22:03.382Z,99.90
2019-05-07T00:27:16.862Z,99.90
2019-05-07T00:32:23.178Z,99.90
2019-05-07T00:37:28.429Z,99.90
2019-05-07T00:42:42.531Z,99.90
2019-05-07T00:47:46.131Z,99.90
2019-05-07T00:52:52.372Z,99.90
2019-05-07T00:57:56.086Z,99.90
2019-05-07T01:03:02.896Z,99.90
2019-05-07T01:08:05.890Z,99.90
2019-05-07T01:13:12.726Z,99.90
2019-05-07T01:18:19.328Z,99.90
2019-05-07T01:23:25.707Z,99.90
2019-05-07T01:28:32.860Z,99.90
2019-05-07T01:33:46.553Z,99.90
2019-05-07T01:38:53.872Z,99.90
2019-05-07T01:44:03.558Z,99.90
2019-05-07T01:49:08.804Z,99.90
2019-05-07T01:54:13.055Z,99.90
2019-05-07T01:59:16.858Z,99.90
2019-05-07T02:04:29.648Z,99.90
2019-05-07T02:09:51.790Z,99.90
2019-05-07T02:14:56.820Z,99.90
2019-05-07T02:20:02.550Z,99.90
2019-05-07T02:25:07.068Z,99.90
2019-05-07T02:30:16.561Z,99.90
2019-05-07T02:35:33.321Z,99.90
2019-05-07T02:40:43.289Z,99.90
2019-05-07T02:46:25.635Z,99.90
2019-05-07T02:51:15.908Z,99.90
2019-05-07T02:56:23.659Z,99.90
2019-05-07T03:01:29.233Z,99.90
2019-05-07T03:06:33.977Z,99.90
2019-05-07T03:11:43.239Z,99.90
2019-05-07T03:16:49.433Z,99.90
2019-05-07T03:21:56.031Z,99.90
2019-05-07T03:27:05.375Z,99.90
2019-05-07T03:32:28.202Z,99.90
2019-05-07T03:37:36.713Z,99.90
2019-05-07T03:42:40.397Z,99.90
2019-05-07T03:47:54.195Z,99.90
2019-05-07T03:53:02.101Z,99.90
2019-05-07T03:58:06.566Z,99.90
2019-05-07T04:03:24.451Z,99.90
2019-05-07T04:08:33.777Z,99.90
2019-05-07T04:13:39.119Z,99.90
2019-05-07T04:18:45.503Z,99.90
2019-05-07T04:23:54.022Z,99.90
2019-05-07T04:29:00.352Z,99.90
2019-05-07T04:34:05.622Z,99.90
2019-05-07T04:39:13.243Z,99.90
2019-05-07T04:44:17.311Z,99.90
2019-05-07T04:49:24.098Z,99.90
2019-05-07T04:54:29.507Z,99.90
2019-05-07T04:59:35.877Z,99.90
2019-05-07T05:04:43.671Z,99.90
2019-05-07T05:09:46.376Z,99.90
2019-05-07T05:14:52.235Z,99.90
2019-05-07T05:19:56.455Z,99.90
2019-05-07T05:25:08.163Z,99.90
2019-05-07T05:30:33.191Z,99.90
2019-05-07T05:35:37.426Z,99.90
2019-05-07T05:40:44.061Z,99.90
2019-05-07T05:45:52.876Z,99.90
2019-05-07T05:51:06.809Z,99.90
2019-05-07T05:56:19.141Z,99.90
2019-05-07T06:01:42.663Z,99.90
2019-05-07T06:06:53.969Z,99.90
2019-05-07T06:12:13.952Z,99.90
2019-05-07T06:17:35.092Z,99.90
2019-05-07T06:22:56.911Z,99.90
2019-05-07T06:28:12.659Z,99.90
2019-05-07T06:33:16.059Z,99.90
2019-05-07T06:38:21.800Z,99.90
2019-05-07T06:43:42.230Z,99.90
2019-05-07T06:48:52.747Z,99.90
2019-05-07T06:54:02.629Z,99.90
2019-05-07T06:59:12.940Z,99.90
2019-05-07T07:04:22.324Z,99.90
2019-05-07T07:09:42.493Z,99.90
2019-05-07T07:14:48.981Z,99.90
2019-05-07T07:19:53.420Z,99.90
2019-05-07T07:24:58.674Z,99.90
2019-05-07T07:30:12.790Z,99.90
2019-05-07T07:35:18.196Z,99.90
2019-05-07T07:40:42.095Z,99.90
2019-05-07T07:45:48.264Z,99.90
2019-05-07T07:50:57.910Z,99.90
2019-05-07T07:56:24.239Z,99.90
2019-05-07T08:01:45.872Z,99.90
2019-05-07T08:06:52.261Z,99.90
2019-05-07T08:12:12.999Z,99.90
2019-05-07T08:17:05.863Z,99.90
2019-05-07T08:22:12.065Z,99.90
2019-05-07T08:27:15.906Z,99.90
2019-05-07T08:32:22.275Z,99.90
2019-05-07T08:37:28.993Z,99.90
2019-05-07T08:42:33.051Z,99.90
2019-05-07T08:47:42.508Z,99.90
2019-05-07T08:52:46.372Z,99.90
2019-05-07T08:57:53.034Z,99.90
2019-05-07T09:02:56.718Z,96.60
2019-05-07T09:08:02.104Z,95.20
2019-05-07T09:13:06.049Z,95.20
2019-05-07T09:18:09.721Z,93.40
2019-05-07T09:23:19.415Z,95.00
2019-05-07T09:28:29.856Z,91.30
2019-05-07T09:33:37.930Z,85.00
2019-05-07T09:38:45.663Z,75.40
2019-05-07T09:43:51.737Z,79.50
2019-05-07T09:48:55.689Z,74.50
2019-05-07T09:54:05.127Z,77.40
2019-05-07T09:59:12.451Z,70.20
2019-05-07T10:04:22.407Z,69.50
2019-05-07T10:09:26.381Z,71.90
2019-05-07T10:14:30.135Z,66.80
2019-05-07T10:19:36.335Z,65.90
2019-05-07T10:24:41.963Z,68.30
2019-05-07T10:29:45.622Z,63.90
2019-05-07T10:34:49.312Z,63.50
2019-05-07T10:39:58.759Z,60.20
2019-05-07T10:45:17.130Z,59.80
2019-05-07T10:50:35.358Z,56.40
2019-05-07T10:55:42.234Z,49.60
2019-05-07T11:00:45.938Z,51.90
2019-05-07T11:05:51.210Z,51.90
2019-05-07T11:10:57.974Z,53.20
2019-05-07T11:16:04.732Z,54.00
2019-05-07T11:21:08.383Z,51.40
2019-05-07T11:26:12.078Z,53.30
2019-05-07T11:31:16.098Z,51.80
2019-05-07T11:36:19.838Z,52.00
2019-05-07T11:41:32.099Z,47.70
2019-05-07T11:46:41.579Z,45.30
2019-05-07T11:51:59.784Z,41.50
2019-05-07T11:57:06.138Z,37.60
2019-05-07T12:02:22.524Z,38.90
2019-05-07T12:07:26.759Z,37.60
2019-05-07T12:12:32.474Z,38.30
2019-05-07T12:17:35.898Z,33.40
2019-05-07T12:22:49.014Z,36.30
2019-05-07T12:27:52.945Z,30.70
2019-05-07T12:33:17.772Z,30.60
2019-05-07T12:38:26.180Z,30.60
2019-05-07T12:43:27.685Z,31.10
2019-05-07T12:48:34.030Z,30.30
2019-05-07T12:53:39.284Z,29.80
2019-05-07T12:58:49.112Z,30.60
2019-05-07T13:04:03.412Z,29.50
2019-05-07T13:09:09.746Z,28.80
2019-05-07T13:14:16.354Z,29.40
2019-05-07T13:19:23.462Z,28.80
2019-05-07T13:24:28.698Z,28.00
2019-05-07T13:29:44.949Z,32.20
2019-05-07T13:34:48.202Z,32.50
2019-05-07T13:39:56.557Z,27.80
2019-05-07T13:45:03.312Z,30.40
2019-05-07T13:50:11.888Z,29.00
2019-05-07T13:55:15.455Z,30.40
2019-05-07T14:00:23.746Z,30.90
2019-05-07T14:05:32.248Z,32.30
2019-05-07T14:10:42.526Z,32.80
2019-05-07T14:16:04.578Z,35.20
2019-05-07T14:21:13.371Z,35.30
2019-05-07T14:26:18.606Z,33.80
2019-05-07T14:31:24.677Z,31.30
2019-05-07T14:36:35.662Z,35.10
2019-05-07T14:41:42.651Z,32.30
2019-05-07T14:46:51.590Z,34.40
2019-05-07T14:51:56.943Z,34.50
2019-05-07T14:57:02.255Z,32.60
2019-05-07T15:02:05.937Z,34.00
2019-05-07T15:07:12.764Z,33.50
2019-05-07T15:12:17.979Z,33.00
2019-05-07T15:17:25.052Z,33.50
2019-05-07T15:22:46.221Z,32.50
2019-05-07T15:27:42.111Z,33.00
2019-05-07T15:32:48.557Z,31.70
2019-05-07T15:37:55.828Z,33.00
2019-05-07T15:43:02.184Z,34.10
2019-05-07T15:48:07.756Z,34.20
2019-05-07T15:53:16.109Z,35.30
2019-05-07T15:58:19.863Z,36.10
2019-05-07T16:03:25.200Z,35.20
2019-05-07T16:08:32.002Z,35.10
2019-05-07T16:13:38.959Z,36.30
2019-05-07T16:19:02.933Z,36.60
2019-05-07T16:24:07.125Z,36.60
2019-05-07T16:29:13.330Z,36.90
2019-05-07T16:34:24.504Z,37.30
2019-05-07T16:39:32.923Z,37.10
2019-05-07T16:44:41.588Z,37.70
2019-05-07T16:49:46.189Z,37.40
2019-05-07T16:54:53.272Z,37.30
2019-05-07T16:59:58.996Z,38.70
2019-05-07T17:05:07.246Z,39.00
2019-05-07T17:10:11.696Z,41.90
2019-05-07T17:15:17.666Z,41.80
2019-05-07T17:20:23.959Z,42.30
2019-05-07T17:25:39.435Z,43.20
2019-05-07T17:30:52.450Z,42.80
2019-05-07T17:35:51.846Z,43.90
2019-05-07T17:41:09.134Z,43.10
2019-05-07T17:46:07.239Z,43.30
2019-05-07T17:51:12.548Z,43.70
2019-05-07T17:56:22.336Z,42.90
2019-05-07T18:01:27.787Z,42.10
2019-05-07T18:06:32.089Z,43.00
2019-05-07T18:11:38.725Z,42.80
2019-05-07T18:16:59.318Z,43.80
2019-05-07T18:22:04.921Z,42.50
2019-05-07T18:27:10.254Z,42.90
2019-05-07T18:32:13.860Z,44.30
2019-05-07T18:37:19.603Z,44.00
2019-05-07T18:42:24.875Z,42.90
2019-05-07T18:47:28.549Z,44.80
2019-05-07T18:52:33.832Z,45.60
2019-05-07T18:57:37.574Z,46.40
2019-05-07T19:02:42.734Z,48.20
2019-05-07T19:08:02.366Z,48.20
2019-05-07T19:12:54.788Z,49.30
2019-05-07T19:17:58.674Z,50.60
2019-05-07T19:23:02.758Z,51.10
2019-05-07T19:28:14.749Z,51.60
2019-05-07T19:33:16.654Z,52.00
2019-05-07T19:38:24.867Z,56.10
2019-05-07T19:43:32.586Z,57.70
2019-05-07T19:48:36.562Z,59.50
2019-05-07T19:53:41.915Z,60.70
2019-05-07T19:58:45.964Z,60.70
2019-05-07T20:03:49.640Z,65.00
2019-05-07T20:08:53.266Z,68.50
2019-05-07T20:14:01.878Z,70.70
2019-05-07T20:19:07.489Z,71.50
2019-05-07T20:24:13.887Z,72.90
2019-05-07T20:29:17.515Z,77.70
2019-05-07T20:34:22.859Z,76.80
2019-05-07T20:39:29.166Z,76.10
2019-05-07T20:44:35.569Z,77.10
2019-05-07T20:49:44.819Z,81.50
2019-05-07T20:54:50.118Z,85.10
2019-05-07T20:59:56.488Z,90.10
2019-05-07T21:05:06.451Z,92.20
2019-05-07T21:10:12.521Z,93.80
2019-05-07T21:15:15.632Z,94.70
2019-05-07T21:20:25.316Z,95.00
2019-05-07T21:25:43.467Z,95.70
2019-05-07T21:30:45.937Z,96.30
2019-05-07T21:35:49.350Z,96.60
2019-05-07T21:40:53.265Z,96.40
2019-05-07T21:45:56.834Z,95.70
2019-05-07T21:51:02.377Z,95.90
2019-05-07T21:56:08.378Z,96.30
2019-05-07T22:01:28.909Z,96.00
2019-05-07T22:06:32.583Z,96.80
2019-05-07T22:11:37.968Z,97.70
2019-05-07T22:16:41.846Z,97.90
2019-05-07T22:21:47.146Z,98.50
2019-05-07T22:26:50.781Z,98.60
2019-05-07T22:32:04.992Z,99.70
2019-05-07T22:37:12.892Z,99.40
2019-05-07T22:42:19.068Z,99.90
2019-05-07T22:47:23.068Z,99.90
2019-05-07T22:52:29.560Z,99.90
2019-05-07T22:57:43.774Z,99.10
2019-05-07T23:02:47.398Z,99.20
2019-05-07T23:07:52.758Z,99.90
2019-05-07T23:13:04.897Z,99.90
2019-05-07T23:18:14.190Z,99.90
2019-05-07T23:23:21.744Z,99.90
2019-05-07T23:28:28.489Z,99.90
2019-05-07T23:33:33.747Z,99.90
2019-05-07T23:38:46.319Z,99.90
2019-05-07T23:44:12.648Z,99.90
2019-05-07T23:49:19.440Z,99.90
2019-05-07T23:54:23.479Z,99.90
2019-05-07T23:59:29.943Z,99.90
